Time;durP1;ratioP1;P1;durP2;ratioP2;P2;SDS_P1;SDS_P2;PMS_P1;PMS_P2;Temp;Humidity;BMP_temperature;BMP_pressure;BME280_temperature;BME280_humidity;BME280_pressure;Samples;Min_cycle;Max_cycle;Signal;HPM_P1;HPM_P2
2022/01/17 00:00:59;;;;;;;269.02;132.25;;;51.20;2227.20;;;;;;5052219;28;20079;-58
2022/01/17 00:03:25;;;;;;;203.52;101.85;;;51.40;2227.20;;;;;;5052229;28;20404;-58
2022/01/17 00:05:54;;;;;;;98.55;49.00;;;51.50;2227.20;;;;;;5052261;28;20056;-58
2022/01/17 00:08:20;;;;;;;81.28;37.97;;;51.50;2227.20;;;;;;5052023;28;20069;-58
2022/01/17 00:10:46;;;;;;;46.05;20.98;;;51.50;2227.20;;;;;;5051817;28;20025;-59
2022/01/17 00:13:22;;;;;;;35.25;17.15;;;51.60;2227.20;;;;;;5052129;28;20037;-58
2022/01/17 00:15:52;;;;;;;47.25;24.23;;;51.50;2227.20;;;;;;5050370;28;20086;-57
2022/01/17 00:20:46;;;;;;;37.38;17.73;;;51.80;2227.20;;;;;;5046267;28;20127;-58
2022/01/17 00:23:15;;;;;;;229.35;101.10;;;51.80;2227.20;;;;;;5051788;28;20128;-57
2022/01/17 00:25:41;;;;;;;104.72;47.13;;;51.90;2227.20;;;;;;5051991;28;20017;-56
2022/01/17 00:28:07;;;;;;;59.05;26.48;;;52.10;2227.20;;;;;;5051606;28;20091;-57
2022/01/17 00:30:33;;;;;;;61.45;33.95;;;76.90;2227.20;;;;;;5051818;28;20132;-60
2022/01/17 00:32:58;;;;;;;84.38;46.95;;;77.00;2227.20;;;;;;5051790;28;20036;-57
2022/01/17 00:35:25;;;;;;;44.38;23.08;;;77.00;2227.20;;;;;;5051848;28;20029;-59
2022/01/17 00:37:52;;;;;;;33.85;17.52;;;76.80;2227.20;;;;;;5051373;28;20047;-57
2022/01/17 00:40:18;;;;;;;29.00;16.65;;;76.90;2227.20;;;;;;5051255;28;20102;-58
2022/01/17 00:42:44;;;;;;;27.60;15.38;;;76.80;2227.20;;;;;;5051526;28;20467;-58
2022/01/17 00:45:13;;;;;;;128.48;56.60;;;77.00;2227.20;;;;;;5051350;28;20117;-58
2022/01/17 00:47:39;;;;;;;49.72;24.08;;;77.00;2227.20;;;;;;5051201;28;20036;-58
2022/01/17 00:50:05;;;;;;;43.03;21.40;;;77.10;2227.20;;;;;;5051452;28;20029;-58
2022/01/17 00:52:31;;;;;;;57.97;30.35;;;77.20;2227.20;;;;;;5051191;28;20382;-58
2022/01/17 00:54:57;;;;;;;71.10;36.85;;;77.20;2227.20;;;;;;5051322;28;20104;-58
2022/01/17 00:57:22;;;;;;;99.70;52.10;;;77.30;2227.20;;;;;;5051342;28;20112;-58
2022/01/17 00:59:48;;;;;;;84.88;39.03;;;77.30;2227.20;;;;;;5051097;28;20041;-57
2022/01/17 01:02:14;;;;;;;30.02;19.55;;;77.50;2227.20;;;;;;5051114;28;20104;-58
2022/01/17 01:04:40;;;;;;;70.90;40.05;;;77.50;2227.20;;;;;;5051524;28;20513;-58
2022/01/17 01:07:05;;;;;;;47.53;25.63;;;77.40;2227.20;;;;;;5050581;28;20041;-59
2022/01/17 01:09:37;;;;;;;47.75;26.08;;;77.40;2227.20;;;;;;5048646;28;20037;-59
2022/01/17 01:12:03;;;;;;;57.10;29.48;;;77.40;2227.20;;;;;;5051087;28;20021;-58
2022/01/17 01:14:29;;;;;;;57.80;29.77;;;77.30;2227.20;;;;;;5051111;28;20382;-57
2022/01/17 01:16:57;;;;;;;46.22;24.80;;;77.40;2227.20;;;;;;5051067;28;20021;-58
2022/01/17 01:29:58;;;;;;;97.53;48.72;;;77.20;2227.20;;;;;;5050923;28;20079;-59
2022/01/17 01:32:31;;;;;;;56.50;33.45;;;77.10;2227.20;;;;;;5050523;28;20041;-58
2022/01/17 01:34:59;;;;;;;64.40;35.88;;;77.00;2227.20;;;;;;5050504;28;20031;-58
2022/01/17 01:37:25;;;;;;;150.25;70.78;;;76.90;2227.20;;;;;;5050594;28;20053;-58
2022/01/17 01:39:52;;;;;;;102.03;49.63;;;76.80;2227.20;;;;;;5050575;28;20064;-57
2022/01/17 01:42:19;;;;;;;109.63;53.60;;;76.90;2227.20;;;;;;5050243;28;20072;-58
2022/01/17 01:44:48;;;;;;;179.45;87.00;;;76.90;2227.20;;;;;;5050484;28;20180;-59
2022/01/17 01:47:14;;;;;;;114.38;53.10;;;77.00;2227.20;;;;;;5049337;28;20634;-58
2022/01/17 01:49:40;;;;;;;91.25;47.65;;;77.00;2227.20;;;;;;5050572;28;20492;-58
2022/01/17 01:52:06;;;;;;;54.78;30.27;;;77.00;2227.20;;;;;;5050450;28;20028;-58
2022/01/17 01:54:32;;;;;;;52.55;32.03;;;77.10;2227.20;;;;;;5050332;28;20025;-57
2022/01/17 01:56:57;;;;;;;49.28;28.10;;;77.10;2227.20;;;;;;5050419;28;20110;-58
2022/01/17 01:59:24;;;;;;;48.33;28.38;;;77.10;2227.20;;;;;;5050295;28;20075;-57
2022/01/17 02:01:51;;;;;;;40.40;22.48;;;77.10;2227.20;;;;;;5050098;28;20388;-58
2022/01/17 02:04:17;;;;;;;36.17;23.45;;;77.10;2227.20;;;;;;5050054;28;20033;-57
2022/01/17 02:06:43;;;;;;;85.38;43.40;;;77.10;2227.20;;;;;;5049839;28;20025;-58
2022/01/17 02:09:09;;;;;;;34.50;22.77;;;77.10;2227.20;;;;;;5049786;28;20040;-58
2022/01/17 02:11:36;;;;;;;57.58;29.70;;;77.10;2227.20;;;;;;5050039;28;20379;-59
2022/01/17 02:14:03;;;;;;;40.42;24.33;;;77.10;2227.20;;;;;;5050105;28;20029;-58
2022/01/17 02:16:28;;;;;;;36.72;23.05;;;77.10;2227.20;;;;;;5049919;28;20533;-59
2022/01/17 02:18:54;;;;;;;37.53;23.17;;;77.10;2227.20;;;;;;5049866;28;20029;-59
2022/01/17 02:21:33;;;;;;;36.33;22.20;;;77.10;2227.20;;;;;;5054216;28;20083;-58
2022/01/17 02:24:00;;;;;;;36.55;22.85;;;77.00;2227.20;;;;;;5053992;28;20033;-59
2022/01/17 02:26:26;;;;;;;52.20;30.00;;;77.20;2227.20;;;;;;5054019;28;20040;-59
2022/01/17 02:28:55;;;;;;;45.70;27.80;;;77.40;2227.20;;;;;;5054214;28;20083;-57
2022/01/17 02:31:22;;;;;;;134.60;67.68;;;77.40;2227.20;;;;;;5053901;28;20060;-57
2022/01/17 02:33:52;;;;;;;39.55;25.30;;;77.50;2227.20;;;;;;5053830;28;20398;-57
2022/01/17 02:36:18;;;;;;;41.50;25.30;;;77.50;2227.20;;;;;;5053854;28;20033;-58
2022/01/17 02:38:44;;;;;;;56.22;30.30;;;77.40;2227.20;;;;;;5054062;28;20030;-57
2022/01/17 02:41:11;;;;;;;71.70;39.13;;;77.40;2227.20;;;;;;5054014;28;20554;-59
2022/01/17 02:43:38;;;;;;;44.45;25.67;;;77.30;2227.20;;;;;;5053488;28;20032;-59
2022/01/17 02:48:31;;;;;;;48.15;28.42;;;77.30;2227.20;;;;;;5053973;28;20387;-59
2022/01/17 02:50:59;;;;;;;67.28;38.00;;;77.40;2227.20;;;;;;5053676;28;20055;-59
2022/01/17 02:53:25;;;;;;;38.85;25.60;;;77.40;2227.20;;;;;;5053612;28;20025;-59
2022/01/17 02:55:58;;;;;;;45.85;26.73;;;77.40;2227.20;;;;;;5053703;28;20029;-58
2022/01/17 02:58:28;;;;;;;44.90;26.52;;;77.40;2227.20;;;;;;5053644;28;20029;-57
2022/01/17 03:00:57;;;;;;;45.53;25.48;;;77.60;2227.20;;;;;;5053522;28;20025;-58
2022/01/17 03:03:26;;;;;;;44.40;24.92;;;77.60;2227.20;;;;;;5053616;28;20044;-57
2022/01/17 03:05:52;;;;;;;43.60;26.58;;;77.60;2227.20;;;;;;5053393;28;20067;-59
2022/01/17 03:08:22;;;;;;;40.28;24.65;;;77.60;2227.20;;;;;;5052989;28;20552;-58
2022/01/17 03:10:49;;;;;;;39.25;24.48;;;77.70;2227.20;;;;;;5053148;28;20112;-58
2022/01/17 03:13:30;;;;;;;38.00;22.52;;;77.70;2227.20;;;;;;5053073;28;20028;-58
2022/01/17 03:15:59;;;;;;;34.95;23.80;;;77.70;2227.20;;;;;;5053156;28;20527;-58
2022/01/17 03:18:31;;;;;;;38.45;24.85;;;102.40;2227.20;;;;;;5053284;28;20025;-59
2022/01/17 03:20:58;;;;;;;44.97;25.55;;;77.70;2227.20;;;;;;5053080;28;20028;-58
2022/01/17 03:23:24;;;;;;;40.88;24.15;;;102.50;2227.20;;;;;;5052956;28;20029;-58
2022/01/17 03:25:50;;;;;;;38.53;23.58;;;102.50;2227.20;;;;;;5052706;28;20029;-58
2022/01/17 03:28:16;;;;;;;46.58;26.42;;;102.50;2227.20;;;;;;5052792;28;20101;-58
2022/01/17 03:30:42;;;;;;;43.75;24.95;;;102.60;2227.20;;;;;;5052340;28;20024;-58
2022/01/17 03:33:11;;;;;;;39.30;25.83;;;102.60;2227.20;;;;;;5052393;28;20467;-58
2022/01/17 03:35:40;;;;;;;39.03;24.88;;;102.70;2227.20;;;;;;5052649;28;20483;-59
2022/01/17 03:38:07;;;;;;;38.40;23.48;;;102.70;2227.20;;;;;;5052650;28;20021;-58
2022/01/17 03:40:33;;;;;;;39.67;24.48;;;102.70;2227.20;;;;;;5052683;28;20048;-58
2022/01/17 03:42:59;;;;;;;38.67;25.63;;;102.70;2227.20;;;;;;5052769;28;20044;-58
2022/01/17 03:45:25;;;;;;;44.28;25.95;;;102.80;2227.20;;;;;;5052514;28;20082;-58
2022/01/17 03:47:52;;;;;;;43.42;25.92;;;102.70;2227.20;;;;;;5052712;28;20028;-58
2022/01/17 03:50:20;;;;;;;38.42;26.77;;;102.70;2227.20;;;;;;5052614;28;20029;-58
2022/01/17 03:52:46;;;;;;;42.65;26.92;;;102.70;2227.20;;;;;;5052318;28;20536;-58
2022/01/17 03:55:17;;;;;;;47.63;28.58;;;102.60;2227.20;;;;;;5052400;28;20471;-58
2022/01/17 03:57:44;;;;;;;43.15;25.45;;;102.70;2227.20;;;;;;5052532;28;20100;-57
2022/01/17 04:00:13;;;;;;;40.30;25.95;;;102.70;2227.20;;;;;;5052347;28;20032;-58
2022/01/17 04:02:40;;;;;;;41.47;26.98;;;102.70;2227.20;;;;;;5052089;28;20494;-59
2022/01/17 04:05:06;;;;;;;184.43;114.95;;;102.70;2227.20;;;;;;5052139;28;20102;-58
2022/01/17 04:07:32;;;;;;;52.20;28.20;;;102.80;2227.20;;;;;;5052172;28;20045;-58
2022/01/17 04:09:58;;;;;;;44.28;28.60;;;102.80;2227.20;;;;;;5052088;28;20032;-58
2022/01/17 04:12:24;;;;;;;45.95;28.08;;;102.90;2227.20;;;;;;5052185;28;20044;-58
2022/01/17 04:14:54;;;;;;;53.92;26.35;;;102.90;2227.20;;;;;;5052113;28;20032;-58
2022/01/17 04:17:20;;;;;;;46.78;28.48;;;103.00;2227.20;;;;;;5052155;28;20071;-58
2022/01/17 04:19:51;;;;;;;42.63;27.30;;;103.00;2227.20;;;;;;5051826;28;20029;-58
2022/01/17 04:22:17;;;;;;;46.47;26.92;;;103.00;2227.20;;;;;;5051891;28;20082;-58
2022/01/17 04:24:43;;;;;;;52.28;31.08;;;103.00;2227.20;;;;;;5051900;28;20033;-58
2022/01/17 04:27:09;;;;;;;60.03;39.45;;;103.00;2227.20;;;;;;5051855;28;20025;-60
2022/01/17 04:29:35;;;;;;;56.28;36.15;;;103.10;2227.20;;;;;;5051883;28;20033;-58
2022/01/17 04:32:02;;;;;;;53.35;32.97;;;103.00;2227.20;;;;;;5051649;28;20597;-58
2022/01/17 04:34:28;;;;;;;46.67;30.30;;;103.10;2227.20;;;;;;5051743;28;20055;-58
2022/01/17 04:36:53;;;;;;;58.80;37.15;;;103.10;2227.20;;;;;;5051766;28;20056;-58
2022/01/17 04:39:20;;;;;;;56.70;36.20;;;103.10;2227.20;;;;;;5051517;28;20058;-58
2022/01/17 04:41:45;;;;;;;46.65;29.08;;;103.10;2227.20;;;;;;5051291;28;20035;-59
2022/01/17 04:47:03;;;;;;;45.80;27.67;;;103.20;2227.20;;;;;;5043232;28;20525;-58
2022/01/17 04:49:29;;;;;;;43.80;28.20;;;103.20;2227.20;;;;;;5051327;28;20033;-59
2022/01/17 04:51:55;;;;;;;44.22;27.90;;;103.20;2227.20;;;;;;5051342;28;20025;-58
2022/01/17 04:54:41;;;;;;;43.15;27.13;;;103.20;2227.20;;;;;;5051479;28;20063;-59
2022/01/17 04:57:08;;;;;;;34.95;23.52;;;103.30;2227.20;;;;;;5051187;28;20475;-59
2022/01/17 04:59:33;;;;;;;41.20;30.55;;;103.30;2227.20;;;;;;5051369;28;20032;-59
2022/01/17 05:01:59;;;;;;;35.75;24.83;;;103.30;2227.20;;;;;;5050970;28;20033;-58
2022/01/17 05:04:25;;;;;;;35.85;26.50;;;128.00;2252.80;;;;;;5051132;28;20045;-59
2022/01/17 05:06:50;;;;;;;37.05;24.50;;;128.00;2252.80;;;;;;5050981;28;20041;-58
2022/01/17 05:09:16;;;;;;;37.45;24.63;;;128.00;2252.80;;;;;;5050799;28;20060;-59
2022/01/17 05:11:43;;;;;;;39.72;26.27;;;128.00;2252.80;;;;;;5051053;28;20060;-59
2022/01/17 05:14:09;;;;;;;42.30;26.42;;;128.00;2252.80;;;;;;5050855;28;20033;-58
2022/01/17 05:16:41;;;;;;;32.83;22.58;;;128.10;2252.80;;;;;;5051013;28;20025;-59
2022/01/17 05:21:51;;;;;;;37.95;22.48;;;128.10;2252.80;;;;;;5050919;28;20516;-58
2022/01/17 05:24:16;;;;;;;41.53;28.42;;;128.10;2252.80;;;;;;5050491;28;20068;-59
2022/01/17 05:26:42;;;;;;;34.90;23.80;;;128.20;2252.80;;;;;;5050828;28;20028;-59
2022/01/17 05:29:08;;;;;;;193.95;110.88;;;128.30;2252.80;;;;;;5050514;28;20064;-59
2022/01/17 05:31:34;;;;;;;114.63;78.53;;;128.30;2252.80;;;;;;5050669;28;20035;-59
2022/01/17 05:33:59;;;;;;;86.88;56.50;;;128.30;2252.80;;;;;;5050723;28;20717;-59
2022/01/17 05:36:25;;;;;;;247.63;172.45;;;128.30;2252.80;;;;;;5050400;28;20021;-59
2022/01/17 05:38:52;;;;;;;128.60;89.00;;;128.30;2252.80;;;;;;5050465;28;20047;-59
2022/01/17 05:41:19;;;;;;;113.68;79.03;;;128.30;2252.80;;;;;;5050314;28;20033;-58
2022/01/17 05:43:45;;;;;;;114.63;76.97;;;128.40;2252.80;;;;;;5050105;28;20037;-58
2022/01/17 05:46:11;;;;;;;44.45;28.63;;;128.40;2252.80;;;;;;5050530;28;20035;-58
2022/01/17 05:48:37;;;;;;;111.97;69.68;;;128.50;2252.80;;;;;;5050215;28;20028;-59
2022/01/17 05:51:02;;;;;;;45.38;31.67;;;128.40;2252.80;;;;;;5050426;28;20104;-58
2022/01/17 05:53:28;;;;;;;79.70;55.53;;;128.50;2252.80;;;;;;5050129;28;20033;-58
2022/01/17 05:55:54;;;;;;;138.38;106.32;;;128.50;2252.80;;;;;;5049880;28;20032;-57
2022/01/17 05:58:20;;;;;;;102.32;78.40;;;128.60;2252.80;;;;;;5050512;28;20044;-60
2022/01/17 06:00:46;;;;;;;56.80;35.55;;;128.60;2252.80;;;;;;5049986;28;20025;-60
2022/01/17 06:03:11;;;;;;;55.60;35.20;;;128.70;2252.80;;;;;;5050075;28;20130;-59
2022/01/17 06:05:37;;;;;;;45.90;28.88;;;128.50;2252.80;;;;;;5049982;28;20486;-60
2022/01/17 06:08:03;;;;;;;36.33;22.05;;;128.20;2252.80;;;;;;5050096;28;20053;-60
2022/01/17 06:10:29;;;;;;;88.60;61.53;;;128.10;2252.80;;;;;;5038050;28;20535;-60
2022/01/17 06:12:56;;;;;;;34.90;23.75;;;128.30;2252.80;;;;;;5030069;28;20167;-60
2022/01/17 06:15:22;;;;;;;81.03;68.07;;;128.50;2252.80;;;;;;5030275;28;20044;-59
2022/01/17 06:17:48;;;;;;;32.75;26.08;;;128.60;2252.80;;;;;;5030000;28;20030;-59
2022/01/17 06:20:14;;;;;;;36.40;27.48;;;128.80;2252.80;;;;;;5030107;28;20037;-58
2022/01/17 06:22:40;;;;;;;59.10;47.05;;;128.90;2252.80;;;;;;5030124;28;20026;-65
2022/01/17 06:25:06;;;;;;;34.25;23.10;;;128.90;2252.80;;;;;;5029756;28;20084;-65
2022/01/17 06:27:32;;;;;;;89.45;79.45;;;128.90;2252.80;;;;;;5030234;28;20080;-65
2022/01/17 06:29:59;;;;;;;40.75;29.77;;;128.70;2252.80;;;;;;5029976;28;20124;-65
2022/01/17 06:32:26;;;;;;;374.83;265.55;;;128.80;2252.80;;;;;;5029837;28;20383;-66
2022/01/17 06:34:55;;;;;;;29.15;17.95;;;128.90;2252.80;;;;;;5029980;28;20495;-63
2022/01/17 06:37:21;;;;;;;38.35;24.00;;;153.60;2252.80;;;;;;5041918;28;20040;-70
2022/01/17 06:39:47;;;;;;;36.13;29.38;;;128.90;2252.80;;;;;;5049656;28;20035;-69
2022/01/17 06:42:13;;;;;;;22.80;13.32;;;128.90;2252.80;;;;;;5049965;28;20108;-65
2022/01/17 06:44:39;;;;;;;22.83;17.88;;;128.90;2252.80;;;;;;5049597;28;20505;-65
2022/01/17 06:47:05;;;;;;;28.45;21.40;;;153.60;2252.80;;;;;;5049557;28;20056;-67
2022/01/17 06:49:30;;;;;;;24.00;18.58;;;153.70;2252.80;;;;;;5049682;28;20056;-66
2022/01/17 06:51:56;;;;;;;16.48;11.10;;;153.80;2252.80;;;;;;5050121;28;20079;-65
2022/01/17 06:54:22;;;;;;;26.05;15.45;;;153.90;2252.80;;;;;;5049828;28;20153;-65
2022/01/17 06:56:48;;;;;;;34.78;20.67;;;154.00;2252.80;;;;;;5049574;28;20074;-64
2022/01/17 06:59:14;;;;;;;32.28;21.13;;;154.10;2252.80;;;;;;5049694;28;20036;-72
2022/01/17 07:01:41;;;;;;;78.25;54.22;;;153.90;2252.80;;;;;;5049511;28;20068;-65
2022/01/17 07:04:08;;;;;;;39.20;30.27;;;153.60;2252.80;;;;;;5049442;28;20496;-72
2022/01/17 07:06:34;;;;;;;27.40;22.15;;;153.70;2252.80;;;;;;5052146;28;20494;-65
2022/01/17 07:09:00;;;;;;;24.60;17.95;;;153.80;2252.80;;;;;;5053470;28;20028;-65
2022/01/17 07:11:26;;;;;;;20.42;14.05;;;154.00;2252.80;;;;;;5053464;28;20036;-66
2022/01/17 07:13:52;;;;;;;31.63;19.85;;;154.20;2252.80;;;;;;5053362;28;20025;-72
2022/01/17 07:16:19;;;;;;;53.17;31.70;;;154.20;2252.80;;;;;;5053037;28;20029;-68
2022/01/17 07:18:45;;;;;;;50.60;29.58;;;154.10;2252.80;;;;;;5052920;28;20057;-67
2022/01/17 07:21:10;;;;;;;64.55;39.35;;;154.20;2252.80;;;;;;5053074;28;20479;-71
2022/01/17 07:23:36;;;;;;;48.55;30.67;;;154.30;2252.80;;;;;;5052982;28;20045;-67
2022/01/17 07:26:02;;;;;;;49.80;33.35;;;154.20;2252.80;;;;;;5053152;28;20380;-67
2022/01/17 07:28:28;;;;;;;74.72;49.92;;;154.00;2252.80;;;;;;5052920;28;20042;-73
2022/01/17 07:30:54;;;;;;;33.83;19.60;;;153.90;2252.80;;;;;;5052897;28;20025;-66
2022/01/17 07:33:22;;;;;;;24.23;16.33;;;154.10;2252.80;;;;;;5052975;28;20036;-67
2022/01/17 07:35:48;;;;;;;24.77;15.88;;;154.30;2252.80;;;;;;5052610;28;20044;-73
2022/01/17 07:38:15;;;;;;;20.23;11.65;;;154.50;2252.80;;;;;;5053128;28;20024;-67
2022/01/17 07:40:43;;;;;;;30.25;19.25;;;179.30;2252.80;;;;;;5052810;28;20067;-67
2022/01/17 07:43:12;;;;;;;18.25;13.25;;;179.40;2252.80;;;;;;5052673;28;20040;-67
2022/01/17 07:45:46;;;;;;;91.97;57.45;;;179.50;2252.80;;;;;;5052692;28;20024;-68
2022/01/17 07:48:43;;;;;;;74.45;45.95;;;179.60;2252.80;;;;;;5052761;28;20475;-68
2022/01/17 07:50:58;;;;;;;57.00;34.75;;;179.70;2252.80;;;;;;5045244;28;20018;-67
2022/01/17 07:53:24;;;;;;;62.72;39.00;;;179.90;2252.80;;;;;;5032821;28;20032;-69
2022/01/17 07:55:49;;;;;;;24.65;13.82;;;180.00;2201.60;;;;;;5032587;28;20025;-73
2022/01/17 07:58:15;;;;;;;19.30;10.77;;;180.00;2227.20;;;;;;5045653;28;20033;-68
2022/01/17 08:00:41;;;;;;;21.85;13.60;;;180.00;2252.80;;;;;;5046273;28;20029;-71
2022/01/17 08:03:07;;;;;;;19.52;12.23;;;180.10;2201.60;;;;;;5032184;28;20073;-67
2022/01/17 08:05:33;;;;;;;28.80;17.73;;;180.10;2227.20;;;;;;5032684;28;20105;-67
2022/01/17 08:08:00;;;;;;;65.50;41.03;;;204.90;2227.20;;;;;;5032193;28;20187;-68
2022/01/17 08:10:26;;;;;;;24.20;16.88;;;204.90;2227.20;;;;;;5032329;28;20460;-71
2022/01/17 08:12:51;;;;;;;43.78;29.50;;;205.50;2099.20;;;;;;5032406;28;20028;-73
2022/01/17 08:15:18;;;;;;;62.50;41.95;;;230.90;1996.80;;;;;;5032070;28;20021;-71
2022/01/17 08:17:48;;;;;;;34.67;22.98;;;256.80;1894.40;;;;;;5031561;28;20419;-71
2022/01/17 08:20:15;;;;;;;24.92;16.67;;;307.20;1792.00;;;;;;5032261;28;20364;-68
2022/01/17 08:22:43;;;;;;;22.30;16.58;;;308.10;1638.40;;;;;;5032152;28;20026;-69
2022/01/17 08:25:09;;;;;;;17.95;14.13;;;332.90;1612.80;;;;;;5031840;28;20030;-74
2022/01/17 08:27:35;;;;;;;21.30;15.00;;;358.40;1536.00;;;;;;5031851;28;20022;-69
2022/01/17 08:30:02;;;;;;;39.92;30.23;;;384.00;1459.20;;;;;;5031833;28;20029;-73
2022/01/17 08:32:30;;;;;;;42.90;29.90;;;409.60;1382.40;;;;;;5032916;28;20029;-69
2022/01/17 08:34:57;;;;;;;46.63;36.55;;;410.50;1331.20;;;;;;5047684;28;20013;-70
2022/01/17 08:37:23;;;;;;;25.02;19.73;;;435.90;1280.00;;;;;;5042988;28;20091;-68
2022/01/17 08:39:49;;;;;;;36.08;31.65;;;435.90;1254.40;;;;;;5046457;28;20024;-75
2022/01/17 08:42:15;;;;;;;17.98;13.60;;;461.10;1228.80;;;;;;5038693;28;20143;-75
2022/01/17 08:44:48;;;;;;;16.02;14.00;;;461.50;1203.20;;;;;;5031800;28;20045;-70
2022/01/17 08:47:14;;;;;;;25.33;20.73;;;461.50;1203.20;;;;;;5031649;28;20032;-72
2022/01/17 08:49:40;;;;;;;16.65;12.65;;;435.60;1228.80;;;;;;5031643;28;20480;-73
2022/01/17 08:52:06;;;;;;;14.85;12.02;;;409.60;1331.20;;;;;;5031212;28;20032;-69
2022/01/17 08:54:32;;;;;;;19.20;15.10;;;384.90;1305.60;;;;;;5031622;28;20017;-69
2022/01/17 08:56:57;;;;;;;18.50;15.38;;;435.40;1254.40;;;;;;5031536;28;20025;-74
2022/01/17 08:59:23;;;;;;;15.50;13.88;;;461.00;1228.80;;;;;;5031452;28;20112;-73
2022/01/17 09:01:49;;;;;;;16.25;14.55;;;486.60;1177.60;;;;;;5030945;28;20404;-75
2022/01/17 09:04:14;;;;;;;13.20;10.98;;;487.10;1126.40;;;;;;5031343;28;20033;-74
2022/01/17 09:06:40;;;;;;;11.82;10.15;;;512.30;1100.80;;;;;;5031344;28;20025;-73
2022/01/17 09:09:06;;;;;;;14.10;8.70;;;512.60;1075.20;;;;;;5031073;28;20034;-74
2022/01/17 09:11:32;;;;;;;80.07;71.43;;;512.90;1049.60;;;;;;5031272;28;20091;-74
2022/01/17 09:13:58;;;;;;;18.50;16.38;;;512.70;1024.00;;;;;;5031147;28;20060;-72
2022/01/17 09:16:24;;;;;;;21.38;19.10;;;537.80;1049.60;;;;;;5031060;28;20048;-74
2022/01/17 09:18:49;;;;;;;12.23;10.45;;;538.30;1024.00;;;;;;5031069;28;20087;-70
2022/01/17 09:21:15;;;;;;;16.55;13.52;;;538.10;1024.00;;;;;;5030935;28;20476;-72
2022/01/17 09:23:41;;;;;;;9.75;7.70;;;563.40;1024.00;;;;;;5030735;28;20044;-74
2022/01/17 09:26:08;;;;;;;13.05;11.75;;;563.50;1024.00;;;;;;5030639;28;20017;-74
2022/01/17 09:28:34;;;;;;;9.35;7.95;;;564.00;998.40;;;;;;5030278;28;20033;-75
2022/01/17 09:30:59;;;;;;;13.98;11.95;;;563.60;998.40;;;;;;5030239;28;20155;-75
2022/01/17 09:33:25;;;;;;;21.17;18.75;;;538.40;998.40;;;;;;5030371;28;20033;-71
2022/01/17 09:35:51;;;;;;;12.80;11.32;;;512.30;1024.00;;;;;;5029481;28;20033;-73
2022/01/17 09:38:18;;;;;;;8.85;7.72;;;512.50;1049.60;;;;;;5029847;28;20033;-73
2022/01/17 09:40:44;;;;;;;10.25;8.40;;;537.70;1024.00;;;;;;5030667;28;20033;-71
2022/01/17 09:43:10;;;;;;;14.30;11.88;;;512.80;1024.00;;;;;;5030672;28;20060;-71
2022/01/17 09:45:36;;;;;;;11.80;9.10;;;512.60;1024.00;;;;;;5030628;28;20048;-70
2022/01/17 09:48:05;;;;;;;7.63;5.90;;;512.40;1024.00;;;;;;5030698;28;20021;-70
2022/01/17 09:50:34;;;;;;;18.27;14.57;;;512.10;1049.60;;;;;;5030672;28;20025;-70
2022/01/17 09:53:02;;;;;;;18.13;15.40;;;512.20;1024.00;;;;;;5030634;28;20028;-69
2022/01/17 09:55:30;;;;;;;14.35;10.77;;;512.40;1049.60;;;;;;5030387;28;20117;-75
2022/01/17 09:58:04;;;;;;;39.33;26.45;;;512.10;1024.00;;;;;;5030265;28;20025;-70
2022/01/17 10:00:36;;;;;;;10.63;8.85;;;486.70;1075.20;;;;;;5030020;28;20047;-73
2022/01/17 10:03:08;;;;;;;13.82;10.80;;;461.00;1126.40;;;;;;5030416;28;20038;-74
2022/01/17 10:05:36;;;;;;;108.88;77.35;;;435.30;1177.60;;;;;;5030507;28;20027;-74
2022/01/17 10:08:04;;;;;;;28.58;19.85;;;409.80;1203.20;;;;;;5030277;28;20549;-69
2022/01/17 10:10:45;;;;;;;10.02;8.30;;;384.50;1228.80;;;;;;5030196;28;20018;-68
2022/01/17 10:13:12;;;;;;;15.98;11.80;;;359.10;1280.00;;;;;;5030175;28;20035;-69
2022/01/17 10:15:49;;;;;;;22.83;18.60;;;358.40;1356.80;;;;;;5029996;28;20026;-75
2022/01/17 10:18:38;;;;;;;40.22;27.40;;;333.20;1382.40;;;;;;5030184;28;20025;-74
2022/01/17 10:21:16;;;;;;;33.85;22.50;;;308.00;1408.00;;;;;;5030052;28;20025;-67
2022/01/17 10:37:25;;;;;;;21.17;14.35;;;282.20;1484.80;;;;;;5047662;28;20044;-69
2022/01/17 10:39:59;;;;;;;16.33;13.50;;;282.20;1484.80;;;;;;5047608;28;20439;-69
2022/01/17 10:42:39;;;;;;;17.67;11.85;;;282.10;1484.80;;;;;;5051522;28;20040;-69
2022/01/17 10:45:14;;;;;;;9.73;6.88;;;282.10;1510.40;;;;;;5051649;28;20037;-67
2022/01/17 10:47:43;;;;;;;23.33;17.27;;;282.20;1484.80;;;;;;5051314;28;20104;-70
2022/01/17 10:50:18;;;;;;;10.30;5.93;;;282.10;1484.80;;;;;;5051333;28;20021;-66
2022/01/17 10:52:55;;;;;;;11.50;8.27;;;282.10;1510.40;;;;;;5051457;28;20505;-70
2022/01/17 10:55:26;;;;;;;8.73;6.03;;;282.00;1510.40;;;;;;5051321;28;20060;-66
2022/01/17 10:57:56;;;;;;;13.85;7.53;;;281.80;1510.40;;;;;;5051365;28;20502;-74
2022/01/17 11:00:31;;;;;;;10.15;5.43;;;281.80;1510.40;;;;;;5051194;28;20033;-68
2022/01/17 11:02:59;;;;;;;26.58;18.63;;;281.70;1510.40;;;;;;5051109;28;20103;-66
2022/01/17 11:05:28;;;;;;;13.52;10.20;;;281.70;1510.40;;;;;;5051271;28;20033;-67
2022/01/17 11:07:56;;;;;;;19.63;13.55;;;281.70;1536.00;;;;;;5051073;28;20045;-66
2022/01/17 11:10:45;;;;;;;24.73;15.52;;;281.70;1510.40;;;;;;5051128;28;20465;-66
2022/01/17 11:13:13;;;;;;;92.35;63.28;;;281.70;1536.00;;;;;;5050771;28;20155;-69
2022/01/17 11:15:43;;;;;;;61.25;41.92;;;281.70;1536.00;;;;;;5033327;28;20059;-66
2022/01/17 11:18:20;;;;;;;94.40;60.40;;;281.70;1536.00;;;;;;5032923;28;20471;-72
2022/01/17 11:20:48;;;;;;;145.60;95.90;;;281.70;1536.00;;;;;;5032981;28;20028;-67
2022/01/17 11:23:14;;;;;;;30.17;22.20;;;281.70;1510.40;;;;;;5033288;28;20438;-65
2022/01/17 11:25:43;;;;;;;56.40;35.58;;;256.90;1484.80;;;;;;5032953;28;20108;-66
2022/01/17 11:28:14;;;;;;;42.83;31.77;;;256.80;1484.80;;;;;;5033001;28;20022;-65
2022/01/17 11:30:40;;;;;;;42.85;33.90;;;256.90;1484.80;;;;;;5032841;28;20079;-66
2022/01/17 11:33:11;;;;;;;14.88;9.35;;;281.60;1536.00;;;;;;5031525;28;20440;-66
2022/01/17 11:35:44;;;;;;;22.73;15.80;;;281.70;1510.40;;;;;;5032743;28;20022;-65
2022/01/17 11:38:13;;;;;;;13.90;9.20;;;281.70;1536.00;;;;;;5032834;28;20025;-66
2022/01/17 11:40:42;;;;;;;61.47;49.20;;;281.70;1510.40;;;;;;5032517;28;20117;-66
2022/01/17 11:43:18;;;;;;;41.42;30.15;;;281.70;1510.40;;;;;;5032400;28;20033;-66
2022/01/17 11:45:45;;;;;;;9.70;7.05;;;281.90;1510.40;;;;;;5032496;28;20033;-68
2022/01/17 11:48:21;;;;;;;9.80;6.45;;;281.90;1510.40;;;;;;5032654;28;20030;-66
2022/01/17 11:50:49;;;;;;;38.50;25.17;;;281.80;1484.80;;;;;;5032463;28;20036;-67
2022/01/17 11:53:15;;;;;;;7.22;4.82;;;282.00;1484.80;;;;;;5031790;28;20044;-66
2022/01/17 11:55:42;;;;;;;31.67;23.38;;;282.00;1484.80;;;;;;5032523;28;20025;-66
2022/01/17 11:58:22;;;;;;;9.57;6.30;;;282.00;1484.80;;;;;;5032245;28;20075;-74
2022/01/17 12:01:00;;;;;;;9.57;6.35;;;282.10;1459.20;;;;;;5032318;28;20025;-66
2022/01/17 12:03:30;;;;;;;6.47;4.63;;;282.20;1459.20;;;;;;5032284;28;20043;-74
2022/01/17 12:06:04;;;;;;;11.45;8.00;;;282.20;1459.20;;;;;;5032013;28;20424;-74
2022/01/17 12:08:30;;;;;;;22.73;18.52;;;282.30;1459.20;;;;;;5032232;28;20076;-74
2022/01/17 12:10:57;;;;;;;6.20;4.15;;;282.20;1459.20;;;;;;5032181;28;20487;-75
2022/01/17 12:13:40;;;;;;;60.33;43.80;;;282.10;1459.20;;;;;;5032091;28;20072;-74
2022/01/17 12:16:10;;;;;;;125.95;61.47;;;281.80;1459.20;;;;;;5031958;28;20032;-74
2022/01/17 12:18:39;;;;;;;23.13;15.35;;;281.70;1484.80;;;;;;5032060;28;20033;-73
2022/01/17 12:21:28;;;;;;;9.57;6.45;;;281.70;1484.80;;;;;;5032014;28;20026;-75
2022/01/17 12:24:16;;;;;;;15.00;11.55;;;281.90;1484.80;;;;;;5031889;28;20091;-74
2022/01/17 12:27:04;;;;;;;9.57;5.63;;;282.00;1459.20;;;;;;5032047;28;20028;-75
2022/01/17 12:29:47;;;;;;;8.98;5.30;;;282.10;1433.60;;;;;;5030579;28;20025;-74
2022/01/17 12:32:25;;;;;;;19.40;17.10;;;282.10;1433.60;;;;;;5032140;28;20116;-74
2022/01/17 12:34:58;;;;;;;11.05;6.28;;;282.10;1459.20;;;;;;5031835;28;20395;-73
2022/01/17 12:38:06;;;;;;;10.20;6.78;;;282.10;1459.20;;;;;;5031879;28;20035;-74
2022/01/17 12:40:35;;;;;;;14.25;8.23;;;281.90;1459.20;;;;;;5031647;28;20455;-74